Airfield :
LOGIN :

Register | Disclaimer

   EN    FR    IT 

 










Legend :    VFR   Marginal VFR   IFR   Intensive IFR   Very Intensive IFR
Visi :
Ceiling :
>= 8 km
>= 3000ft
5 to 8 km
1000 to 3000 ft
1500m to 5 km
500 to 1000 ft
800 to 1500m
200 to 500 ft
< 800m
< 200 ft
Symbols :   Thunderstorms  Fog  Heavy snow  Heavy precipitations  Wind > 20 kt
SIGMETs :     Misc.  Thunderstorms  Icing  Turbulence  Mountain Waves  Volcanic Ashes







- Airport Elevation : 348 ft
- IATA code : STN
- Download approach charts


EGSS - London Stansted

CURRENT METAR :
  • 210820Z AUTO 20017KT 9999 BKN022 13/10 Q1002

EXPIRED METARs :
  • 210750Z AUTO 20015KT 9999 SCT025 SCT030 12/10 Q1002
  • 210720Z AUTO 19016KT 9999 FEW026/// SCT031/// //////TCU 12/10 Q1002
  • 210650Z AUTO 20014KT 9999 SCT023 BKN028 BKN033 12/10 Q1002
  • 210620Z AUTO 20015KT 9999 SCT017 SCT028 12/10 Q1002
  • 210550Z AUTO 20014KT 9999 BKN015 BKN021 12/11 Q1002

TAF TAF EGSS
Valid from the 21 at 06:00 until the 22 at 12:00 UTC


210500Z 2106/2212 18012KT 9999 BKN009
BECMG 2106/2108 SCT025
PROB30
TEMPO 2106/2116 7000 SHRA
BECMG 2108/2110 20018G28KT
PROB30
TEMPO 2109/2120 21023G38KT
TEMPO 2116/2120 7000 SHRA BKN014
BECMG 2119/2121 24013KT
PROB30
TEMPO 2120/2206 25016G26KT 7000 SHRA
BECMG 2206/2209 27020G30KT
TEMPO 2206/2210 7000 RA BKN014
ATIS : +44 1279 669 325
No reported NOTAMs for that airfield.
1 SIGMET reported for the London FIR (EGTT) :
 
Severe turbulence
EGTT SIGMET 02 VALID 210600/211000 EGRR
EGTT LONDON FIR SEV TURB FCST WI N4850 W00800 - N5100 W00800 - N5220 W00530 - N5430 W00530 - N5430 W00300 - N5000 W00200 - N4850 W00800 SFC/FL060 MOV E 20KT NC=



MET'MAP, your aeronautical weather chart ! - Copyright ORBIFLY December 2007 - Disclaimer

ORBIFLY MET'MAP TEAM :

Programming & Development : Alexandra Zaïnal
Concept & Development : Baudouin d'Aumeries
Co-Development & Prog : Marc-Olivier Méhu
Technical & hardware support : Manuel Goepfert

Contact : metmap@orbifly.com




SOURCES & CREDITS :

   NOAA